This is the latest recevied weather packets stored in our database for station/object I2HLY-4. If no packets are shown the sender has not sent any weather packets the latest 10 day(s).
| Time | Temp. | Humidity | Pressure | Rain* | Wind** | Luminosity | Snow |
|---|---|---|---|---|---|---|---|
| 1777712539 | 13.89° C | 57% | 1027.3 hPa | 0 mm | - | - | - |
| 1777711638 | 13.89° C | 59% | 1027.1 hPa | 0 mm | - | - | - |
| 1777710742 | 13.33° C | 59% | 1027.3 hPa | 0 mm | - | - | - |
| 1777709841 | 13.33° C | 60% | 1027.4 hPa | 0 mm | - | - | - |
| 1777708941 | 12.78° C | 60% | 1027.4 hPa | 0 mm | - | - | - |
| 1777708045 | 12.22° C | 63% | 1027.5 hPa | 0 mm | - | - | - |
| 1777707144 | 11.67° C | 63% | 1027.6 hPa | 0 mm | - | - | - |
| 1777706245 | 11.11° C | 65% | 1027.6 hPa | 0 mm | - | - | - |
| 1777705345 | 10° C | 72% | 1027.7 hPa | 0 mm | - | - | - |
| 1777704445 | 9.44° C | 75% | 1027.7 hPa | 0 mm | - | - | - |
| 1777703548 | 8.89° C | 77% | 1027.7 hPa | 0 mm | - | - | - |
| 1777702647 | 7.78° C | 78% | 1027.6 hPa | 0 mm | - | - | - |
| 1777701750 | 7.22° C | 79% | 1027.6 hPa | 0 mm | - | - | - |
| 1777700850 | 6.67° C | 81% | 1027.7 hPa | 0 mm | - | - | - |
| 1777699949 | 6.67° C | 81% | 1027.6 hPa | 0 mm | - | - | - |
| 1777699032 | 6.11° C | 80% | 1027.6 hPa | 0 mm | - | - | - |
| 1777698132 | 6.11° C | 80% | 1027.5 hPa | 0 mm | - | - | - |
| 1777697236 | 6.11° C | 80% | 1027.7 hPa | 0 mm | - | - | - |
| 1777696335 | 6.11° C | 81% | 1027.5 hPa | 0 mm | - | - | - |
| 1777695435 | 6.11° C | 81% | 1027.5 hPa | 0 mm | - | - | - |
| 1777694540 | 6.11° C | 80% | 1027.5 hPa | 0 mm | - | - | - |
| 1777693639 | 6.11° C | 80% | 1027.5 hPa | 0 mm | - | - | - |
| 1777692738 | 6.11° C | 79% | 1027.5 hPa | 0 mm | - | - | - |
| 1777691841 | 6.11° C | 79% | 1027.3 hPa | 0 mm | - | - | - |
| 1777690940 | 6.67° C | 78% | 1027.4 hPa | 0 mm | - | - | - |
* Rain latest hour (hover to see other rain measurements)
** Current wind speed in m/s (hover to see current wind gust speed)